sensor_id;sensor_type;location;lat;lon;timestamp;temperature;humidity
50804;DHT22;37205;51.434;6.756;2023-06-22T00:01:16;22.50;99.90
50804;DHT22;37205;51.434;6.756;2023-06-22T00:03:42;22.40;99.90
50804;DHT22;37205;51.434;6.756;2023-06-22T00:06:07;22.30;1.00
50804;DHT22;37205;51.434;6.756;2023-06-22T00:08:33;22.30;1.00
50804;DHT22;37205;51.434;6.756;2023-06-22T00:11:05;22.30;96.40
50804;DHT22;37205;51.434;6.756;2023-06-22T00:13:31;22.20;99.90
50804;DHT22;37205;51.434;6.756;2023-06-22T00:15:56;22.20;99.90
50804;DHT22;37205;51.434;6.756;2023-06-22T00:18:22;22.30;99.90
50804;DHT22;37205;51.434;6.756;2023-06-22T00:20:55;22.20;99.90
50804;DHT22;37205;51.434;6.756;2023-06-22T00:23:22;22.30;99.90
50804;DHT22;37205;51.434;6.756;2023-06-22T00:25:49;22.20;99.90
50804;DHT22;37205;51.434;6.756;2023-06-22T00:28:15;22.30;99.90
50804;DHT22;37205;51.434;6.756;2023-06-22T00:30:40;22.20;1.00
50804;DHT22;37205;51.434;6.756;2023-06-22T00:33:06;22.20;1.00
50804;DHT22;37205;51.434;6.756;2023-06-22T00:35:33;22.20;1.00
50804;DHT22;37205;51.434;6.756;2023-06-22T00:38:00;22.10;27.20
50804;DHT22;37205;51.434;6.756;2023-06-22T00:40:29;22.10;99.90
50804;DHT22;37205;51.434;6.756;2023-06-22T00:42:55;22.00;99.90
50804;DHT22;37205;51.434;6.756;2023-06-22T00:45:24;22.00;1.00
50804;DHT22;37205;51.434;6.756;2023-06-22T00:47:53;22.00;55.90
50804;DHT22;37205;51.434;6.756;2023-06-22T00:50:23;21.90;99.90
50804;DHT22;37205;51.434;6.756;2023-06-22T00:52:56;21.90;99.90
50804;DHT22;37205;51.434;6.756;2023-06-22T00:55:24;21.90;1.00
50804;DHT22;37205;51.434;6.756;2023-06-22T00:57:51;21.90;1.00
50804;DHT22;37205;51.434;6.756;2023-06-22T01:00:22;21.90;1.00
50804;DHT22;37205;51.434;6.756;2023-06-22T01:02:50;21.90;1.00
50804;DHT22;37205;51.434;6.756;2023-06-22T01:05:19;21.80;99.90
50804;DHT22;37205;51.434;6.756;2023-06-22T01:07:49;21.80;99.90
50804;DHT22;37205;51.434;6.756;2023-06-22T01:10:36;21.80;1.00
50804;DHT22;37205;51.434;6.756;2023-06-22T01:13:10;21.80;1.00
50804;DHT22;37205;51.434;6.756;2023-06-22T01:15:46;21.80;99.90
50804;DHT22;37205;51.434;6.756;2023-06-22T01:18:17;21.70;99.90
50804;DHT22;37205;51.434;6.756;2023-06-22T01:20:43;21.60;86.50
50804;DHT22;37205;51.434;6.756;2023-06-22T01:23:26;21.60;1.00
50804;DHT22;37205;51.434;6.756;2023-06-22T01:25:57;21.60;34.90
50804;DHT22;37205;51.434;6.756;2023-06-22T01:31:10;21.50;1.00
50804;DHT22;37205;51.434;6.756;2023-06-22T01:33:39;21.50;80.00
50804;DHT22;37205;51.434;6.756;2023-06-22T01:36:06;21.50;99.90
50804;DHT22;37205;51.434;6.756;2023-06-22T01:38:32;21.50;99.90
50804;DHT22;37205;51.434;6.756;2023-06-22T01:40:59;21.50;99.90
50804;DHT22;37205;51.434;6.756;2023-06-22T01:43:26;21.40;1.00
50804;DHT22;37205;51.434;6.756;2023-06-22T01:45:56;21.50;85.80
50804;DHT22;37205;51.434;6.756;2023-06-22T01:48:22;21.50;99.90
50804;DHT22;37205;51.434;6.756;2023-06-22T01:50:48;21.40;99.90
50804;DHT22;37205;51.434;6.756;2023-06-22T01:53:14;21.40;99.90
50804;DHT22;37205;51.434;6.756;2023-06-22T01:55:40;21.40;99.90
50804;DHT22;37205;51.434;6.756;2023-06-22T01:58:06;21.40;1.00
50804;DHT22;37205;51.434;6.756;2023-06-22T02:00:33;21.30;1.00
50804;DHT22;37205;51.434;6.756;2023-06-22T02:03:05;21.30;86.90
50804;DHT22;37205;51.434;6.756;2023-06-22T02:05:38;21.20;99.90
50804;DHT22;37205;51.434;6.756;2023-06-22T02:08:09;21.30;99.90
50804;DHT22;37205;51.434;6.756;2023-06-22T02:10:37;21.20;99.90
50804;DHT22;37205;51.434;6.756;2023-06-22T02:13:07;21.20;1.00
50804;DHT22;37205;51.434;6.756;2023-06-22T02:15:33;21.20;1.00
50804;DHT22;37205;51.434;6.756;2023-06-22T02:18:00;21.20;1.00
50804;DHT22;37205;51.434;6.756;2023-06-22T02:20:26;21.20;1.00
50804;DHT22;37205;51.434;6.756;2023-06-22T02:22:51;21.30;99.90
50804;DHT22;37205;51.434;6.756;2023-06-22T02:25:17;21.30;99.90
50804;DHT22;37205;51.434;6.756;2023-06-22T02:27:42;21.30;1.00
50804;DHT22;37205;51.434;6.756;2023-06-22T02:30:08;21.20;1.00
50804;DHT22;37205;51.434;6.756;2023-06-22T02:32:35;21.20;1.00
50804;DHT22;37205;51.434;6.756;2023-06-22T02:35:00;21.20;1.00
50804;DHT22;37205;51.434;6.756;2023-06-22T02:37:30;21.20;1.00
50804;DHT22;37205;51.434;6.756;2023-06-22T02:39:55;21.20;1.00
50804;DHT22;37205;51.434;6.756;2023-06-22T02:42:21;21.10;3.20
50804;DHT22;37205;51.434;6.756;2023-06-22T02:44:47;21.00;99.90
50804;DHT22;37205;51.434;6.756;2023-06-22T02:47:13;21.10;99.90
50804;DHT22;37205;51.434;6.756;2023-06-22T02:49:38;21.10;99.90
50804;DHT22;37205;51.434;6.756;2023-06-22T02:52:04;21.10;99.90
50804;DHT22;37205;51.434;6.756;2023-06-22T02:54:30;21.10;99.90
50804;DHT22;37205;51.434;6.756;2023-06-22T02:56:55;21.10;99.90
50804;DHT22;37205;51.434;6.756;2023-06-22T02:59:21;21.10;99.90
50804;DHT22;37205;51.434;6.756;2023-06-22T03:01:49;21.10;99.90
50804;DHT22;37205;51.434;6.756;2023-06-22T03:04:15;21.00;99.90
50804;DHT22;37205;51.434;6.756;2023-06-22T03:06:41;21.00;99.90
50804;DHT22;37205;51.434;6.756;2023-06-22T03:09:07;21.00;99.90
50804;DHT22;37205;51.434;6.756;2023-06-22T03:11:33;21.00;99.90
50804;DHT22;37205;51.434;6.756;2023-06-22T03:14:00;20.90;99.90
50804;DHT22;37205;51.434;6.756;2023-06-22T03:16:26;20.90;99.90
50804;DHT22;37205;51.434;6.756;2023-06-22T03:18:52;20.90;99.90
50804;DHT22;37205;51.434;6.756;2023-06-22T03:21:19;21.00;99.90
50804;DHT22;37205;51.434;6.756;2023-06-22T03:23:44;20.90;99.90
50804;DHT22;37205;51.434;6.756;2023-06-22T03:26:10;20.90;99.90
50804;DHT22;37205;51.434;6.756;2023-06-22T03:28:36;20.80;99.90
50804;DHT22;37205;51.434;6.756;2023-06-22T03:31:03;20.70;99.90
50804;DHT22;37205;51.434;6.756;2023-06-22T03:33:29;20.70;99.90
50804;DHT22;37205;51.434;6.756;2023-06-22T03:35:55;20.70;1.00
50804;DHT22;37205;51.434;6.756;2023-06-22T03:38:20;20.70;99.90
50804;DHT22;37205;51.434;6.756;2023-06-22T03:40:46;20.60;1.00
50804;DHT22;37205;51.434;6.756;2023-06-22T03:43:12;20.60;1.00
50804;DHT22;37205;51.434;6.756;2023-06-22T03:45:37;20.60;1.00
50804;DHT22;37205;51.434;6.756;2023-06-22T03:48:03;20.60;1.00
50804;DHT22;37205;51.434;6.756;2023-06-22T03:50:29;20.70;1.00
50804;DHT22;37205;51.434;6.756;2023-06-22T03:52:55;20.70;1.00
50804;DHT22;37205;51.434;6.756;2023-06-22T03:55:21;20.70;1.00
50804;DHT22;37205;51.434;6.756;2023-06-22T03:57:47;20.70;1.00
50804;DHT22;37205;51.434;6.756;2023-06-22T04:00:13;20.70;1.00
50804;DHT22;37205;51.434;6.756;2023-06-22T04:02:39;20.70;1.00
50804;DHT22;37205;51.434;6.756;2023-06-22T04:05:05;20.70;1.00
50804;DHT22;37205;51.434;6.756;2023-06-22T04:07:30;20.70;1.00
50804;DHT22;37205;51.434;6.756;2023-06-22T04:09:56;20.70;1.00
50804;DHT22;37205;51.434;6.756;2023-06-22T04:12:22;20.80;1.00
50804;DHT22;37205;51.434;6.756;2023-06-22T04:14:47;20.80;1.00
50804;DHT22;37205;51.434;6.756;2023-06-22T04:17:13;20.90;1.00
50804;DHT22;37205;51.434;6.756;2023-06-22T04:19:39;20.90;1.00
50804;DHT22;37205;51.434;6.756;2023-06-22T04:22:05;20.90;1.00
50804;DHT22;37205;51.434;6.756;2023-06-22T04:24:33;20.90;1.00
50804;DHT22;37205;51.434;6.756;2023-06-22T04:26:58;21.00;99.90
50804;DHT22;37205;51.434;6.756;2023-06-22T04:29:28;21.10;99.90
50804;DHT22;37205;51.434;6.756;2023-06-22T04:31:58;21.10;99.90
50804;DHT22;37205;51.434;6.756;2023-06-22T04:34:28;21.10;99.90
50804;DHT22;37205;51.434;6.756;2023-06-22T04:36:54;21.00;99.90
50804;DHT22;37205;51.434;6.756;2023-06-22T04:39:20;21.10;99.90
50804;DHT22;37205;51.434;6.756;2023-06-22T04:41:46;21.10;99.90
50804;DHT22;37205;51.434;6.756;2023-06-22T04:47:34;21.10;99.90
50804;DHT22;37205;51.434;6.756;2023-06-22T04:49:59;21.10;99.90
50804;DHT22;37205;51.434;6.756;2023-06-22T04:52:31;21.10;99.90
50804;DHT22;37205;51.434;6.756;2023-06-22T04:54:56;21.10;99.90
50804;DHT22;37205;51.434;6.756;2023-06-22T04:57:25;21.10;99.90
50804;DHT22;37205;51.434;6.756;2023-06-22T04:59:57;21.00;99.90
50804;DHT22;37205;51.434;6.756;2023-06-22T05:02:23;21.10;99.90
50804;DHT22;37205;51.434;6.756;2023-06-22T05:04:55;21.10;99.90
50804;DHT22;37205;51.434;6.756;2023-06-22T05:07:22;21.10;99.90
50804;DHT22;37205;51.434;6.756;2023-06-22T05:09:50;21.20;99.90
50804;DHT22;37205;51.434;6.756;2023-06-22T05:12:16;21.20;99.90
50804;DHT22;37205;51.434;6.756;2023-06-22T05:14:42;21.10;99.90
50804;DHT22;37205;51.434;6.756;2023-06-22T05:17:07;21.20;99.90
50804;DHT22;37205;51.434;6.756;2023-06-22T05:19:38;21.10;99.90
50804;DHT22;37205;51.434;6.756;2023-06-22T05:22:04;21.00;99.90
50804;DHT22;37205;51.434;6.756;2023-06-22T05:24:31;21.10;99.90
50804;DHT22;37205;51.434;6.756;2023-06-22T05:26:57;21.10;99.90
50804;DHT22;37205;51.434;6.756;2023-06-22T05:29:22;21.10;99.90
50804;DHT22;37205;51.434;6.756;2023-06-22T05:31:49;21.10;99.90
50804;DHT22;37205;51.434;6.756;2023-06-22T05:34:14;21.10;99.90
50804;DHT22;37205;51.434;6.756;2023-06-22T05:36:40;21.20;99.90
50804;DHT22;37205;51.434;6.756;2023-06-22T05:39:12;21.10;99.90
50804;DHT22;37205;51.434;6.756;2023-06-22T05:41:39;21.20;99.90
50804;DHT22;37205;51.434;6.756;2023-06-22T05:44:04;21.10;99.90
50804;DHT22;37205;51.434;6.756;2023-06-22T05:46:30;21.10;99.90
50804;DHT22;37205;51.434;6.756;2023-06-22T05:48:55;21.10;99.90
50804;DHT22;37205;51.434;6.756;2023-06-22T05:51:21;21.10;99.90
50804;DHT22;37205;51.434;6.756;2023-06-22T05:53:46;21.20;99.90
50804;DHT22;37205;51.434;6.756;2023-06-22T05:56:15;21.10;99.90
50804;DHT22;37205;51.434;6.756;2023-06-22T05:58:41;21.10;99.90
50804;DHT22;37205;51.434;6.756;2023-06-22T06:01:06;21.10;99.90
50804;DHT22;37205;51.434;6.756;2023-06-22T06:03:32;21.20;99.90
50804;DHT22;37205;51.434;6.756;2023-06-22T06:05:57;21.20;99.90
50804;DHT22;37205;51.434;6.756;2023-06-22T06:08:23;21.10;99.90
50804;DHT22;37205;51.434;6.756;2023-06-22T06:10:48;21.10;99.90
50804;DHT22;37205;51.434;6.756;2023-06-22T06:13:14;21.10;99.90
50804;DHT22;37205;51.434;6.756;2023-06-22T06:15:39;21.10;99.90
50804;DHT22;37205;51.434;6.756;2023-06-22T06:18:05;21.10;99.90
50804;DHT22;37205;51.434;6.756;2023-06-22T06:20:32;21.20;99.90
50804;DHT22;37205;51.434;6.756;2023-06-22T06:22:57;21.20;99.90
50804;DHT22;37205;51.434;6.756;2023-06-22T06:25:23;21.20;1.00
50804;DHT22;37205;51.434;6.756;2023-06-22T06:27:50;21.10;1.00
50804;DHT22;37205;51.434;6.756;2023-06-22T06:30:17;21.10;1.00
50804;DHT22;37205;51.434;6.756;2023-06-22T06:32:44;21.00;1.00
50804;DHT22;37205;51.434;6.756;2023-06-22T06:35:11;21.10;1.00
50804;DHT22;37205;51.434;6.756;2023-06-22T06:37:39;21.00;1.00
50804;DHT22;37205;51.434;6.756;2023-06-22T06:40:06;21.00;1.00
50804;DHT22;37205;51.434;6.756;2023-06-22T06:42:37;20.90;1.00
50804;DHT22;37205;51.434;6.756;2023-06-22T06:45:04;21.00;1.00
50804;DHT22;37205;51.434;6.756;2023-06-22T06:47:30;21.00;1.00
50804;DHT22;37205;51.434;6.756;2023-06-22T06:49:56;21.00;1.00
50804;DHT22;37205;51.434;6.756;2023-06-22T06:52:21;20.90;1.00
50804;DHT22;37205;51.434;6.756;2023-06-22T06:54:47;20.90;1.00
50804;DHT22;37205;51.434;6.756;2023-06-22T06:57:12;21.00;1.00
50804;DHT22;37205;51.434;6.756;2023-06-22T06:59:39;21.00;1.00
50804;DHT22;37205;51.434;6.756;2023-06-22T07:02:04;21.10;1.00
50804;DHT22;37205;51.434;6.756;2023-06-22T07:04:30;21.10;1.00
50804;DHT22;37205;51.434;6.756;2023-06-22T07:06:55;21.10;1.00
50804;DHT22;37205;51.434;6.756;2023-06-22T07:09:21;21.10;1.00
50804;DHT22;37205;51.434;6.756;2023-06-22T07:11:47;21.20;1.00
50804;DHT22;37205;51.434;6.756;2023-06-22T07:14:12;21.20;1.00
50804;DHT22;37205;51.434;6.756;2023-06-22T07:16:38;21.20;1.00
50804;DHT22;37205;51.434;6.756;2023-06-22T07:19:03;21.30;1.00
50804;DHT22;37205;51.434;6.756;2023-06-22T07:21:29;21.30;1.00
50804;DHT22;37205;51.434;6.756;2023-06-22T07:23:54;21.40;1.00
50804;DHT22;37205;51.434;6.756;2023-06-22T07:26:20;21.40;1.00
50804;DHT22;37205;51.434;6.756;2023-06-22T07:28:45;21.50;1.00
50804;DHT22;37205;51.434;6.756;2023-06-22T07:31:11;21.50;1.00
50804;DHT22;37205;51.434;6.756;2023-06-22T07:33:36;21.50;1.00
50804;DHT22;37205;51.434;6.756;2023-06-22T07:36:02;21.50;1.00
50804;DHT22;37205;51.434;6.756;2023-06-22T07:38:33;21.60;1.00
50804;DHT22;37205;51.434;6.756;2023-06-22T07:40:58;21.70;1.00
50804;DHT22;37205;51.434;6.756;2023-06-22T07:43:24;21.70;1.00
50804;DHT22;37205;51.434;6.756;2023-06-22T07:45:50;21.70;1.00
50804;DHT22;37205;51.434;6.756;2023-06-22T07:48:22;21.80;1.00
50804;DHT22;37205;51.434;6.756;2023-06-22T07:50:48;21.80;1.00
50804;DHT22;37205;51.434;6.756;2023-06-22T07:53:14;21.80;1.00
50804;DHT22;37205;51.434;6.756;2023-06-22T07:55:40;21.80;1.00
50804;DHT22;37205;51.434;6.756;2023-06-22T07:58:05;21.70;1.00
50804;DHT22;37205;51.434;6.756;2023-06-22T08:00:31;21.70;1.00
50804;DHT22;37205;51.434;6.756;2023-06-22T08:02:58;21.80;1.00
50804;DHT22;37205;51.434;6.756;2023-06-22T08:05:24;21.80;1.00
50804;DHT22;37205;51.434;6.756;2023-06-22T08:07:49;21.70;1.00
50804;DHT22;37205;51.434;6.756;2023-06-22T08:10:15;21.70;1.00
50804;DHT22;37205;51.434;6.756;2023-06-22T08:12:41;21.70;1.00
50804;DHT22;37205;51.434;6.756;2023-06-22T08:15:07;21.80;1.00
50804;DHT22;37205;51.434;6.756;2023-06-22T08:17:33;21.80;1.00
50804;DHT22;37205;51.434;6.756;2023-06-22T08:19:59;21.90;1.00
50804;DHT22;37205;51.434;6.756;2023-06-22T08:22:25;21.80;1.00
50804;DHT22;37205;51.434;6.756;2023-06-22T08:24:50;21.90;1.00
50804;DHT22;37205;51.434;6.756;2023-06-22T08:27:16;21.90;1.00
50804;DHT22;37205;51.434;6.756;2023-06-22T08:29:43;21.90;1.00
50804;DHT22;37205;51.434;6.756;2023-06-22T08:32:11;21.90;1.00
50804;DHT22;37205;51.434;6.756;2023-06-22T08:34:37;22.00;1.00
50804;DHT22;37205;51.434;6.756;2023-06-22T08:37:02;22.10;1.00
50804;DHT22;37205;51.434;6.756;2023-06-22T08:39:31;22.20;1.00
50804;DHT22;37205;51.434;6.756;2023-06-22T08:41:57;22.10;1.00
50804;DHT22;37205;51.434;6.756;2023-06-22T08:44:23;22.10;1.00
50804;DHT22;37205;51.434;6.756;2023-06-22T08:46:48;22.10;1.00
50804;DHT22;37205;51.434;6.756;2023-06-22T08:49:14;22.10;1.00
50804;DHT22;37205;51.434;6.756;2023-06-22T08:51:39;22.10;1.00
50804;DHT22;37205;51.434;6.756;2023-06-22T08:54:05;22.00;1.00
50804;DHT22;37205;51.434;6.756;2023-06-22T08:56:30;22.10;1.00
50804;DHT22;37205;51.434;6.756;2023-06-22T08:58:56;22.00;1.00
50804;DHT22;37205;51.434;6.756;2023-06-22T09:01:21;22.10;1.00
50804;DHT22;37205;51.434;6.756;2023-06-22T09:03:47;22.20;1.00
50804;DHT22;37205;51.434;6.756;2023-06-22T09:06:21;22.20;1.00
50804;DHT22;37205;51.434;6.756;2023-06-22T09:08:47;22.30;1.00
50804;DHT22;37205;51.434;6.756;2023-06-22T09:11:13;22.40;1.00
50804;DHT22;37205;51.434;6.756;2023-06-22T09:13:38;22.40;1.00
50804;DHT22;37205;51.434;6.756;2023-06-22T09:16:04;22.50;1.00
50804;DHT22;37205;51.434;6.756;2023-06-22T09:18:29;22.60;1.00
50804;DHT22;37205;51.434;6.756;2023-06-22T09:20:55;22.60;1.00
50804;DHT22;37205;51.434;6.756;2023-06-22T09:23:21;22.70;1.00
50804;DHT22;37205;51.434;6.756;2023-06-22T09:25:46;22.80;99.90
50804;DHT22;37205;51.434;6.756;2023-06-22T09:28:15;22.90;99.90
50804;DHT22;37205;51.434;6.756;2023-06-22T09:30:43;23.10;99.90
50804;DHT22;37205;51.434;6.756;2023-06-22T09:33:09;23.00;99.90
50804;DHT22;37205;51.434;6.756;2023-06-22T09:35:35;23.10;99.90
50804;DHT22;37205;51.434;6.756;2023-06-22T09:38:00;23.30;99.90
50804;DHT22;37205;51.434;6.756;2023-06-22T09:40:26;23.40;99.90
50804;DHT22;37205;51.434;6.756;2023-06-22T09:42:51;23.60;99.90
50804;DHT22;37205;51.434;6.756;2023-06-22T09:45:17;23.70;99.90
50804;DHT22;37205;51.434;6.756;2023-06-22T09:47:43;23.90;99.90
50804;DHT22;37205;51.434;6.756;2023-06-22T09:50:08;24.00;99.90
50804;DHT22;37205;51.434;6.756;2023-06-22T09:52:34;24.00;18.20
50804;DHT22;37205;51.434;6.756;2023-06-22T09:55:00;24.20;1.00
50804;DHT22;37205;51.434;6.756;2023-06-22T09:57:25;24.30;18.60
50804;DHT22;37205;51.434;6.756;2023-06-22T09:59:51;24.40;1.00
50804;DHT22;37205;51.434;6.756;2023-06-22T10:02:17;24.60;99.90
50804;DHT22;37205;51.434;6.756;2023-06-22T10:04:42;24.80;99.90
50804;DHT22;37205;51.434;6.756;2023-06-22T10:07:08;24.90;1.00
50804;DHT22;37205;51.434;6.756;2023-06-22T10:09:33;24.90;99.90
50804;DHT22;37205;51.434;6.756;2023-06-22T10:11:59;24.90;99.90
50804;DHT22;37205;51.434;6.756;2023-06-22T10:14:24;25.10;1.00
50804;DHT22;37205;51.434;6.756;2023-06-22T10:16:52;25.20;1.00
50804;DHT22;37205;51.434;6.756;2023-06-22T10:19:18;25.30;10.80
50804;DHT22;37205;51.434;6.756;2023-06-22T10:21:43;25.40;1.00
50804;DHT22;37205;51.434;6.756;2023-06-22T10:24:09;25.50;99.90
50804;DHT22;37205;51.434;6.756;2023-06-22T10:26:35;25.60;99.90
50804;DHT22;37205;51.434;6.756;2023-06-22T10:29:02;25.80;99.90
50804;DHT22;37205;51.434;6.756;2023-06-22T10:31:28;26.10;1.00
50804;DHT22;37205;51.434;6.756;2023-06-22T10:33:54;26.30;99.90
50804;DHT22;37205;51.434;6.756;2023-06-22T10:36:21;26.30;60.70
50804;DHT22;37205;51.434;6.756;2023-06-22T10:38:47;26.30;8.80
50804;DHT22;37205;51.434;6.756;2023-06-22T10:41:13;26.30;1.00
50804;DHT22;37205;51.434;6.756;2023-06-22T10:43:39;26.30;1.00
50804;DHT22;37205;51.434;6.756;2023-06-22T10:46:04;26.30;1.00
50804;DHT22;37205;51.434;6.756;2023-06-22T10:48:30;26.30;1.00
50804;DHT22;37205;51.434;6.756;2023-06-22T10:50:55;26.20;99.90
50804;DHT22;37205;51.434;6.756;2023-06-22T10:53:21;26.20;99.90
50804;DHT22;37205;51.434;6.756;2023-06-22T10:55:47;26.10;99.90
50804;DHT22;37205;51.434;6.756;2023-06-22T10:58:12;26.00;1.00
50804;DHT22;37205;51.434;6.756;2023-06-22T11:00:38;25.90;1.00
50804;DHT22;37205;51.434;6.756;2023-06-22T11:03:04;25.80;99.90
50804;DHT22;37205;51.434;6.756;2023-06-22T11:05:29;25.70;99.90
50804;DHT22;37205;51.434;6.756;2023-06-22T11:07:55;25.60;99.90
50804;DHT22;37205;51.434;6.756;2023-06-22T11:10:20;25.60;99.90
50804;DHT22;37205;51.434;6.756;2023-06-22T11:12:46;25.60;1.00
50804;DHT22;37205;51.434;6.756;2023-06-22T11:15:12;25.50;99.90
50804;DHT22;37205;51.434;6.756;2023-06-22T11:17:37;25.40;99.90
50804;DHT22;37205;51.434;6.756;2023-06-22T11:20:03;25.30;99.90
50804;DHT22;37205;51.434;6.756;2023-06-22T11:22:37;25.40;1.00
50804;DHT22;37205;51.434;6.756;2023-06-22T11:25:05;25.30;1.00
50804;DHT22;37205;51.434;6.756;2023-06-22T11:27:31;25.30;99.90
50804;DHT22;37205;51.434;6.756;2023-06-22T11:29:56;25.20;99.90
50804;DHT22;37205;51.434;6.756;2023-06-22T11:32:22;25.10;1.00
50804;DHT22;37205;51.434;6.756;2023-06-22T11:34:48;25.10;99.90
50804;DHT22;37205;51.434;6.756;2023-06-22T11:37:13;25.00;99.90
50804;DHT22;37205;51.434;6.756;2023-06-22T11:39:39;25.00;99.90
50804;DHT22;37205;51.434;6.756;2023-06-22T11:42:05;24.80;99.90
50804;DHT22;37205;51.434;6.756;2023-06-22T11:44:30;24.60;1.00
50804;DHT22;37205;51.434;6.756;2023-06-22T11:46:56;24.40;1.00
50804;DHT22;37205;51.434;6.756;2023-06-22T11:49:21;24.10;1.00
50804;DHT22;37205;51.434;6.756;2023-06-22T11:51:47;23.90;1.00
50804;DHT22;37205;51.434;6.756;2023-06-22T11:54:12;23.70;1.00
50804;DHT22;37205;51.434;6.756;2023-06-22T11:56:38;23.60;11.80
50804;DHT22;37205;51.434;6.756;2023-06-22T11:59:03;23.60;16.20
50804;DHT22;37205;51.434;6.756;2023-06-22T12:01:29;23.50;27.00
50804;DHT22;37205;51.434;6.756;2023-06-22T12:03:54;23.40;48.10
50804;DHT22;37205;51.434;6.756;2023-06-22T12:06:20;23.30;58.70
50804;DHT22;37205;51.434;6.756;2023-06-22T12:08:45;23.20;71.40
50804;DHT22;37205;51.434;6.756;2023-06-22T12:11:11;23.20;78.40
50804;DHT22;37205;51.434;6.756;2023-06-22T12:13:36;23.20;79.90
50804;DHT22;37205;51.434;6.756;2023-06-22T12:16:02;23.10;85.00
50804;DHT22;37205;51.434;6.756;2023-06-22T12:18:27;23.10;86.50
50804;DHT22;37205;51.434;6.756;2023-06-22T12:20:53;23.10;86.60
50804;DHT22;37205;51.434;6.756;2023-06-22T12:23:19;23.10;92.50
50804;DHT22;37205;51.434;6.756;2023-06-22T12:25:45;23.10;96.00
50804;DHT22;37205;51.434;6.756;2023-06-22T12:28:11;23.20;98.00
50804;DHT22;37205;51.434;6.756;2023-06-22T12:30:37;23.30;99.90
50804;DHT22;37205;51.434;6.756;2023-06-22T12:33:02;23.50;99.90
50804;DHT22;37205;51.434;6.756;2023-06-22T12:35:28;23.60;99.60
50804;DHT22;37205;51.434;6.756;2023-06-22T12:37:53;23.80;99.60
50804;DHT22;37205;51.434;6.756;2023-06-22T12:40:19;23.90;99.50
50804;DHT22;37205;51.434;6.756;2023-06-22T12:42:45;24.00;90.30
50804;DHT22;37205;51.434;6.756;2023-06-22T12:45:11;23.90;74.10
50804;DHT22;37205;51.434;6.756;2023-06-22T12:47:36;24.00;69.50
50804;DHT22;37205;51.434;6.756;2023-06-22T12:50:02;24.00;54.70
50804;DHT22;37205;51.434;6.756;2023-06-22T12:52:32;24.10;48.30
50804;DHT22;37205;51.434;6.756;2023-06-22T12:54:58;24.10;53.70
50804;DHT22;37205;51.434;6.756;2023-06-22T12:57:24;24.10;55.40
50804;DHT22;37205;51.434;6.756;2023-06-22T12:59:49;24.10;48.80
50804;DHT22;37205;51.434;6.756;2023-06-22T13:02:15;24.20;45.90
50804;DHT22;37205;51.434;6.756;2023-06-22T13:04:40;24.10;43.00
50804;DHT22;37205;51.434;6.756;2023-06-22T13:07:06;24.20;33.40
50804;DHT22;37205;51.434;6.756;2023-06-22T13:09:32;24.20;50.50
50804;DHT22;37205;51.434;6.756;2023-06-22T13:11:57;24.20;40.40
50804;DHT22;37205;51.434;6.756;2023-06-22T13:14:23;24.10;30.30
50804;DHT22;37205;51.434;6.756;2023-06-22T13:16:49;24.10;48.90
50804;DHT22;37205;51.434;6.756;2023-06-22T13:19:15;24.10;48.60
50804;DHT22;37205;51.434;6.756;2023-06-22T13:21:41;23.90;61.20
50804;DHT22;37205;51.434;6.756;2023-06-22T13:24:06;23.80;68.50
50804;DHT22;37205;51.434;6.756;2023-06-22T13:26:32;23.70;72.10
50804;DHT22;37205;51.434;6.756;2023-06-22T13:28:58;23.70;83.90
50804;DHT22;37205;51.434;6.756;2023-06-22T13:31:23;23.70;85.10
50804;DHT22;37205;51.434;6.756;2023-06-22T13:33:49;23.70;88.00
50804;DHT22;37205;51.434;6.756;2023-06-22T13:36:17;23.70;88.70
50804;DHT22;37205;51.434;6.756;2023-06-22T13:38:43;23.70;90.20
50804;DHT22;37205;51.434;6.756;2023-06-22T13:41:08;23.60;94.50
50804;DHT22;37205;51.434;6.756;2023-06-22T13:43:34;23.60;99.90
50804;DHT22;37205;51.434;6.756;2023-06-22T13:46:00;23.60;99.90
50804;DHT22;37205;51.434;6.756;2023-06-22T13:48:25;23.70;98.30
50804;DHT22;37205;51.434;6.756;2023-06-22T13:50:51;23.80;94.80
50804;DHT22;37205;51.434;6.756;2023-06-22T13:53:17;23.80;97.60
50804;DHT22;37205;51.434;6.756;2023-06-22T13:55:43;23.90;93.60
50804;DHT22;37205;51.434;6.756;2023-06-22T13:58:08;24.00;92.70
50804;DHT22;37205;51.434;6.756;2023-06-22T14:00:34;24.00;89.00
50804;DHT22;37205;51.434;6.756;2023-06-22T14:02:59;24.10;75.70
50804;DHT22;37205;51.434;6.756;2023-06-22T14:05:25;24.20;80.70
50804;DHT22;37205;51.434;6.756;2023-06-22T14:07:50;24.30;85.10
50804;DHT22;37205;51.434;6.756;2023-06-22T14:10:16;24.50;66.80
50804;DHT22;37205;51.434;6.756;2023-06-22T14:12:42;24.60;42.50
50804;DHT22;37205;51.434;6.756;2023-06-22T14:15:07;24.60;29.10
50804;DHT22;37205;51.434;6.756;2023-06-22T14:17:33;24.60;21.40
50804;DHT22;37205;51.434;6.756;2023-06-22T14:19:59;24.60;1.00
50804;DHT22;37205;51.434;6.756;2023-06-22T14:22:24;24.60;6.00
50804;DHT22;37205;51.434;6.756;2023-06-22T14:24:51;24.60;9.60
50804;DHT22;37205;51.434;6.756;2023-06-22T14:27:16;24.40;4.60
50804;DHT22;37205;51.434;6.756;2023-06-22T14:29:42;24.40;8.50
50804;DHT22;37205;51.434;6.756;2023-06-22T14:32:08;24.40;15.60
50804;DHT22;37205;51.434;6.756;2023-06-22T14:34:34;24.30;25.40
50804;DHT22;37205;51.434;6.756;2023-06-22T14:37:02;24.20;9.80
50804;DHT22;37205;51.434;6.756;2023-06-22T14:39:28;24.10;15.90
50804;DHT22;37205;51.434;6.756;2023-06-22T14:41:53;24.00;31.20
50804;DHT22;37205;51.434;6.756;2023-06-22T14:44:19;24.00;31.10
50804;DHT22;37205;51.434;6.756;2023-06-22T14:46:44;23.90;32.90
50804;DHT22;37205;51.434;6.756;2023-06-22T14:49:10;23.80;43.60
50804;DHT22;37205;51.434;6.756;2023-06-22T14:51:36;23.80;42.70
50804;DHT22;37205;51.434;6.756;2023-06-22T14:54:01;23.80;36.60
50804;DHT22;37205;51.434;6.756;2023-06-22T14:56:27;23.70;45.90
50804;DHT22;37205;51.434;6.756;2023-06-22T14:58:52;23.70;53.00
50804;DHT22;37205;51.434;6.756;2023-06-22T15:01:18;23.60;47.80
50804;DHT22;37205;51.434;6.756;2023-06-22T15:03:44;23.50;70.30
50804;DHT22;37205;51.434;6.756;2023-06-22T15:06:10;23.40;85.50
50804;DHT22;37205;51.434;6.756;2023-06-22T15:08:37;23.30;94.50
50804;DHT22;37205;51.434;6.756;2023-06-22T15:11:04;23.30;99.00
50804;DHT22;37205;51.434;6.756;2023-06-22T15:13:33;23.30;99.90
50804;DHT22;37205;51.434;6.756;2023-06-22T15:15:59;23.20;99.90
50804;DHT22;37205;51.434;6.756;2023-06-22T15:18:25;23.30;99.90
50804;DHT22;37205;51.434;6.756;2023-06-22T15:20:51;23.30;99.90
50804;DHT22;37205;51.434;6.756;2023-06-22T15:23:17;23.20;99.60
50804;DHT22;37205;51.434;6.756;2023-06-22T15:25:43;23.20;99.90
50804;DHT22;37205;51.434;6.756;2023-06-22T15:28:09;23.00;99.90
50804;DHT22;37205;51.434;6.756;2023-06-22T15:30:35;23.10;99.90
50804;DHT22;37205;51.434;6.756;2023-06-22T15:33:01;22.90;99.90
50804;DHT22;37205;51.434;6.756;2023-06-22T15:35:27;22.90;99.90
50804;DHT22;37205;51.434;6.756;2023-06-22T15:37:52;22.90;99.90